Quievrain, Belgium
Current Conditions -  °F | °C
As of 10:25 PM on Saturday 22 Nov 2014 (Local Time) from EBCV Reporting Station
Broken Clouds Broken Clouds  
Wind Chill: 50°   Ceiling: 15000
Heat Index: 50°   Visibility: 6mi
Dew Point: 48°   Wind: 5mph
Humidity: 94%   Direction: 190°S
Pressure: 30.03"   Gusts: NA
Location:  50.41°N, 3.68°E
Report Text: EBCV 222125Z AUTO 19004KT 9000 SCT130/// BKN150/// 10/09 Q1017 BLU
Loading
Personal Weather Stations






























Interactive Weather Map New forecast layout! Learn more

10-Day Weather Forecast

Advertisements
Track Severe Weather on mobile